Time;durP1;ratioP1;P1;durP2;ratioP2;P2;SDS_P1;SDS_P2;PMS_P1;PMS_P2;Temp;Humidity;BMP_temperature;BMP_pressure;BME280_temperature;BME280_humidity;BME280_pressure;Samples;Min_cycle;Max_cycle;Signal;HPM_P1;HPM_P2
2021/12/28 00:00:58;;;;;;;8.57;6.68;;;;;;;;;;5066188;28;20217;-80
2021/12/28 00:03:25;;;;;;;11.35;7.10;;;;;;;;;;5051812;28;20190;-81
2021/12/28 00:05:52;;;;;;;7.88;6.70;;;;;;;;;;5087820;28;20194;-79
2021/12/28 00:08:19;;;;;;;8.30;6.80;;;;;;;;;;5082189;28;20784;-80
2021/12/28 00:10:47;;;;;;;9.90;7.07;;;;;;;;;;5086193;28;20225;-82
2021/12/28 00:13:15;;;;;;;9.93;6.60;;;;;;;;;;5073768;28;20669;-81
2021/12/28 00:16:02;;;;;;;9.20;6.45;;;;;;;;;;5078792;28;20201;-80
2021/12/28 00:18:30;;;;;;;10.35;6.50;;;;;;;;;;5071129;28;20225;-82
2021/12/28 00:20:59;;;;;;;9.13;6.75;;;;;;;;;;5068538;28;20220;-80
2021/12/28 00:23:30;;;;;;;10.75;7.63;;;;;;;;;;5085807;28;20209;-79
2021/12/28 00:25:58;;;;;;;10.63;6.85;;;;;;;;;;5069366;28;20193;-80
2021/12/28 00:28:25;;;;;;;9.20;6.65;;;;;;;;;;5079928;28;20221;-81
2021/12/28 00:30:53;;;;;;;11.82;6.05;;;;;;;;;;5074931;28;20824;-82
2021/12/28 00:33:22;;;;;;;8.40;6.53;;;;;;;;;;5071143;28;20196;-80
2021/12/28 00:35:51;;;;;;;8.30;6.53;;;;;;;;;;5091640;28;20193;-82
2021/12/28 00:38:21;;;;;;;7.88;6.57;;;;;;;;;;5090866;28;20189;-80
2021/12/28 00:40:49;;;;;;;9.13;6.03;;;;;;;;;;5073218;28;20715;-81
2021/12/28 00:43:16;;;;;;;11.63;6.53;;;;;;;;;;5089863;28;20208;-82
2021/12/28 00:45:44;;;;;;;8.10;6.03;;;;;;;;;;5079048;28;20217;-79
2021/12/28 00:48:11;;;;;;;9.38;6.35;;;;;;;;;;5078025;28;20218;-80
2021/12/28 00:50:39;;;;;;;10.88;6.05;;;;;;;;;;5072139;28;20217;-79
2021/12/28 00:53:07;;;;;;;12.50;6.82;;;;;;;;;;5070892;28;20201;-80
2021/12/28 00:55:35;;;;;;;8.93;6.60;;;;;;;;;;5087265;28;20483;-81
2021/12/28 00:58:02;;;;;;;11.25;7.32;;;;;;;;;;5091042;28;20197;-80
2021/12/28 01:00:30;;;;;;;11.65;6.32;;;;;;;;;;5087333;28;20923;-79
2021/12/28 01:02:58;;;;;;;11.80;8.40;;;;;;;;;;5078335;28;20564;-80
2021/12/28 01:05:26;;;;;;;11.63;7.00;;;;;;;;;;5086924;28;20208;-79
2021/12/28 01:07:55;;;;;;;9.43;6.50;;;;;;;;;;5091570;28;20224;-80
2021/12/28 01:10:26;;;;;;;17.90;7.45;;;;;;;;;;5070021;28;20241;-80
2021/12/28 01:12:55;;;;;;;11.07;6.25;;;;;;;;;;5078718;28;20189;-80
2021/12/28 01:15:23;;;;;;;11.23;6.45;;;;;;;;;;5090270;28;20197;-81
2021/12/28 01:17:50;;;;;;;11.90;6.35;;;;;;;;;;5063679;28;20230;-80
2021/12/28 01:20:17;;;;;;;12.23;5.95;;;;;;;;;;5076218;28;20725;-78
2021/12/28 01:22:45;;;;;;;11.18;5.53;;;;;;;;;;5077632;28;20206;-81
2021/12/28 01:25:13;;;;;;;7.72;4.63;;;;;;;;;;5087948;28;20565;-79
2021/12/28 01:27:42;;;;;;;10.95;4.85;;;;;;;;;;5071980;28;20209;-81
2021/12/28 01:30:10;;;;;;;11.73;5.53;;;;;;;;;;5070181;28;20554;-78
2021/12/28 01:32:38;;;;;;;17.40;5.40;;;;;;;;;;5090102;28;20204;-81
2021/12/28 01:35:06;;;;;;;13.32;5.93;;;;;;;;;;5076245;28;20204;-81
2021/12/28 01:37:34;;;;;;;16.48;5.57;;;;;;;;;;5069815;28;20202;-81
2021/12/28 01:40:01;;;;;;;9.32;5.85;;;;;;;;;;5078874;28;20227;-81
2021/12/28 01:42:29;;;;;;;9.57;5.40;;;;;;;;;;5077925;28;20198;-78
2021/12/28 01:44:57;;;;;;;12.13;5.80;;;;;;;;;;5071511;28;20208;-80
2021/12/28 01:47:25;;;;;;;16.73;6.18;;;;;;;;;;5072385;28;20218;-79
2021/12/28 01:49:52;;;;;;;11.82;5.40;;;;;;;;;;5089031;28;20220;-80
2021/12/28 01:52:19;;;;;;;19.20;6.03;;;;;;;;;;5077362;28;20200;-81
2021/12/28 01:54:46;;;;;;;10.50;5.28;;;;;;;;;;5073868;28;20512;-78
2021/12/28 01:57:13;;;;;;;6.93;4.45;;;;;;;;;;5071437;28;20566;-79
2021/12/28 01:59:40;;;;;;;15.95;5.13;;;;;;;;;;5071759;28;20229;-79
2021/12/28 02:02:09;;;;;;;9.90;4.68;;;;;;;;;;5075901;28;20308;-79
2021/12/28 02:04:36;;;;;;;9.82;5.00;;;;;;;;;;5075814;28;20208;-81
2021/12/28 02:07:03;;;;;;;11.00;5.97;;;;;;;;;;5086263;28;20213;-78
2021/12/28 02:09:31;;;;;;;11.05;4.93;;;;;;;;;;5076586;28;20224;-80
2021/12/28 02:11:58;;;;;;;12.02;4.63;;;;;;;;;;5090730;28;20196;-79
2021/12/28 02:14:25;;;;;;;7.70;4.63;;;;;;;;;;5089232;28;20205;-80
2021/12/28 02:16:52;;;;;;;8.80;4.97;;;;;;;;;;5086389;28;20658;-79
2021/12/28 02:19:21;;;;;;;13.68;4.88;;;;;;;;;;5075681;28;20205;-80
2021/12/28 02:21:49;;;;;;;11.65;4.75;;;;;;;;;;5071855;28;20236;-80
2021/12/28 02:24:16;;;;;;;8.77;4.78;;;;;;;;;;5088505;28;20204;-79
2021/12/28 02:26:44;;;;;;;11.63;5.15;;;;;;;;;;5085069;28;20205;-80
2021/12/28 02:29:11;;;;;;;12.85;4.65;;;;;;;;;;5079815;28;20568;-79
2021/12/28 02:31:38;;;;;;;8.65;4.70;;;;;;;;;;5089416;28;20576;-80
2021/12/28 02:34:06;;;;;;;16.52;4.65;;;;;;;;;;5075487;28;20292;-80
2021/12/28 02:36:33;;;;;;;10.65;4.80;;;;;;;;;;5077561;28;20193;-80
2021/12/28 02:39:01;;;;;;;14.93;4.63;;;;;;;;;;5083848;28;20208;-80
2021/12/28 02:41:28;;;;;;;9.82;4.63;;;;;;;;;;5089880;28;20217;-79
2021/12/28 02:43:59;;;;;;;9.88;4.10;;;;;;;;;;5088572;28;20201;-78
2021/12/28 02:46:27;;;;;;;13.57;4.72;;;;;;;;;;5090768;28;20646;-80
2021/12/28 02:48:54;;;;;;;12.40;4.45;;;;;;;;;;5088118;28;20213;-80
2021/12/28 02:51:21;;;;;;;10.65;4.65;;;;;;;;;;5077535;28;20224;-78
2021/12/28 02:53:49;;;;;;;9.25;4.07;;;;;;;;;;5079906;28;20228;-79
2021/12/28 02:56:18;;;;;;;11.38;4.80;;;;;;;;;;5089380;28;20204;-78
2021/12/28 02:58:46;;;;;;;10.13;4.18;;;;;;;;;;5070151;28;20224;-79
2021/12/28 03:01:14;;;;;;;12.52;4.32;;;;;;;;;;5085540;28;20233;-80
2021/12/28 03:03:42;;;;;;;12.07;4.72;;;;;;;;;;5051660;28;20206;-80
2021/12/28 03:06:10;;;;;;;10.50;4.50;;;;;;;;;;5055424;28;20764;-80
2021/12/28 03:08:39;;;;;;;25.27;4.15;;;;;;;;;;5076677;28;20487;-80
2021/12/28 03:11:07;;;;;;;13.63;4.00;;;;;;;;;;5089027;28;20213;-82
2021/12/28 03:13:36;;;;;;;14.82;4.80;;;;;;;;;;5087121;28;20193;-81
2021/12/28 03:16:04;;;;;;;14.48;4.40;;;;;;;;;;5071256;28;21191;-82
2021/12/28 03:18:31;;;;;;;16.08;4.70;;;;;;;;;;5086851;28;20221;-83
2021/12/28 03:20:59;;;;;;;19.77;4.80;;;;;;;;;;5083114;28;20243;-80
2021/12/28 03:23:26;;;;;;;17.10;4.15;;;;;;;;;;5076619;28;20205;-84
2021/12/28 03:25:54;;;;;;;13.23;4.38;;;;;;;;;;5081698;28;20579;-81
2021/12/28 03:28:24;;;;;;;28.10;4.53;;;;;;;;;;5087481;28;20221;-82
2021/12/28 03:30:54;;;;;;;14.20;4.03;;;;;;;;;;5084948;28;20248;-82
2021/12/28 03:33:23;;;;;;;17.43;4.60;;;;;;;;;;5069942;28;20450;-83
2021/12/28 03:35:50;;;;;;;14.38;4.45;;;;;;;;;;5089036;28;20953;-83
2021/12/28 03:38:17;;;;;;;18.40;4.68;;;;;;;;;;5079269;28;20209;-81
2021/12/28 03:40:45;;;;;;;19.53;4.10;;;;;;;;;;5075222;28;20218;-81
2021/12/28 03:43:12;;;;;;;30.48;6.65;;;;;;;;;;5053302;28;20447;-81
2021/12/28 03:45:39;;;;;;;18.77;4.23;;;;;;;;;;5072436;28;20201;-82
2021/12/28 03:48:08;;;;;;;22.97;5.67;;;;;;;;;;5070315;28;20472;-81
2021/12/28 03:50:36;;;;;;;16.42;5.20;;;;;;;;;;5091812;28;20474;-81
2021/12/28 03:53:04;;;;;;;15.68;4.93;;;;;;;;;;5069089;28;20205;-80
2021/12/28 03:55:32;;;;;;;13.17;4.00;;;;;;;;;;5058307;28;20198;-82
2021/12/28 03:58:00;;;;;;;18.57;4.27;;;;;;;;;;5076688;28;20467;-82
2021/12/28 04:00:28;;;;;;;12.00;4.80;;;;;;;;;;5087853;28;20489;-82
2021/12/28 04:02:56;;;;;;;20.03;4.53;;;;;;;;;;5088783;28;20462;-82
2021/12/28 04:05:25;;;;;;;20.20;4.23;;;;;;;;;;5088921;28;20453;-81
2021/12/28 04:07:52;;;;;;;23.07;4.50;;;;;;;;;;5088670;28;20530;-81
2021/12/28 04:10:28;;;;;;;25.92;5.18;;;;;;;;;;5084752;28;20483;-82
2021/12/28 04:12:55;;;;;;;16.77;4.83;;;;;;;;;;5078701;28;20201;-83
2021/12/28 04:15:22;;;;;;;15.27;4.20;;;;;;;;;;5079209;28;20458;-82
2021/12/28 04:17:49;;;;;;;14.40;3.97;;;;;;;;;;5090804;28;20475;-82
2021/12/28 04:20:18;;;;;;;17.50;4.13;;;;;;;;;;5089895;28;20479;-81
2021/12/28 04:22:46;;;;;;;28.20;4.83;;;;;;;;;;5092079;28;20458;-82
2021/12/28 04:25:15;;;;;;;15.80;4.03;;;;;;;;;;5085953;28;20471;-81
2021/12/28 04:27:43;;;;;;;27.17;6.70;;;;;;;;;;5078468;28;20463;-83
2021/12/28 04:30:11;;;;;;;24.88;3.75;;;;;;;;;;5077000;28;20472;-81
2021/12/28 04:32:39;;;;;;;27.50;4.10;;;;;;;;;;5087772;28;20194;-83
2021/12/28 04:35:06;;;;;;;21.45;3.80;;;;;;;;;;5073257;28;20448;-83
2021/12/28 04:37:33;;;;;;;13.53;3.97;;;;;;;;;;5092457;28;20224;-82
2021/12/28 04:40:02;;;;;;;12.10;4.60;;;;;;;;;;5071485;28;20491;-84
2021/12/28 04:42:30;;;;;;;20.33;4.90;;;;;;;;;;5080405;28;20938;-81
2021/12/28 04:44:57;;;;;;;26.33;4.57;;;;;;;;;;5083422;28;20455;-81
2021/12/28 04:47:24;;;;;;;18.20;4.40;;;;;;;;;;5091093;28;20817;-83
2021/12/28 04:49:52;;;;;;;16.17;3.93;;;;;;;;;;5089468;28;20291;-82
2021/12/28 04:52:19;;;;;;;8.20;3.80;;;;;;;;;;5090733;28;20462;-82
2021/12/28 04:54:46;;;;;;;18.33;4.63;;;;;;;;;;5090500;28;20473;-80
2021/12/28 04:57:15;;;;;;;14.85;4.38;;;;;;;;;;5077878;28;20813;-83
2021/12/28 04:59:42;;;;;;;21.52;5.15;;;;;;;;;;5079726;28;20706;-82
2021/12/28 05:02:09;;;;;;;17.30;4.33;;;;;;;;;;5086208;28;20674;-83
2021/12/28 05:04:36;;;;;;;18.77;4.57;;;;;;;;;;5070706;28;20444;-81
2021/12/28 05:07:03;;;;;;;16.67;5.00;;;;;;;;;;5072064;28;21127;-83
2021/12/28 05:09:30;;;;;;;24.00;6.63;;;;;;;;;;5085276;28;21057;-83
2021/12/28 05:11:58;;;;;;;18.60;5.13;;;;;;;;;;5089987;28;20480;-82
2021/12/28 05:14:26;;;;;;;18.73;5.10;;;;;;;;;;5064034;28;20456;-81
2021/12/28 05:16:53;;;;;;;23.92;6.20;;;;;;;;;;5079169;28;20932;-83
2021/12/28 05:19:21;;;;;;;16.57;4.90;;;;;;;;;;5082056;28;20230;-84
2021/12/28 05:21:48;;;;;;;17.23;5.40;;;;;;;;;;5077702;28;20475;-82
2021/12/28 05:24:15;;;;;;;22.70;5.53;;;;;;;;;;5077900;28;20458;-79
2021/12/28 05:26:42;;;;;;;14.30;5.50;;;;;;;;;;5090145;28;20482;-83
2021/12/28 05:29:09;;;;;;;20.03;6.70;;;;;;;;;;5089846;28;20475;-81
2021/12/28 05:31:38;;;;;;;15.88;6.13;;;;;;;;;;5090872;28;20459;-82
2021/12/28 05:34:07;;;;;;;20.00;5.93;;;;;;;;;;5088823;28;20680;-83
2021/12/28 05:36:52;;;;;;;16.47;5.80;;;;;;;;;;5053522;28;20437;-83
2021/12/28 05:39:19;;;;;;;25.20;6.63;;;;;;;;;;5056176;28;20448;-82
2021/12/28 05:41:47;;;;;;;18.10;6.47;;;;;;;;;;5050393;28;20225;-82
2021/12/28 05:44:15;;;;;;;18.33;7.00;;;;;;;;;;5046771;28;20837;-82
2021/12/28 05:46:43;;;;;;;17.07;6.70;;;;;;;;;;5047481;28;20859;-82
2021/12/28 05:49:11;;;;;;;20.70;7.40;;;;;;;;;;5058490;28;20472;-81
2021/12/28 05:51:38;;;;;;;18.07;6.90;;;;;;;;;;5067081;28;20480;-84
2021/12/28 05:54:05;;;;;;;13.03;5.90;;;;;;;;;;5056346;28;20455;-81
2021/12/28 05:56:32;;;;;;;21.70;6.40;;;;;;;;;;5078784;28;20449;-80
2021/12/28 05:58:59;;;;;;;19.30;7.17;;;;;;;;;;5078155;28;20450;-83
2021/12/28 06:01:26;;;;;;;24.03;6.77;;;;;;;;;;5089012;28;20479;-84
2021/12/28 06:03:55;;;;;;;19.03;6.87;;;;;;;;;;5076903;28;20445;-82
2021/12/28 06:06:22;;;;;;;26.33;7.77;;;;;;;;;;5071464;28;20543;-81
2021/12/28 06:08:51;;;;;;;10.50;5.77;;;;;;;;;;5078927;28;20483;-82
2021/12/28 06:11:18;;;;;;;12.57;6.07;;;;;;;;;;5093188;28;20512;-81
2021/12/28 06:13:46;;;;;;;8.07;5.97;;;;;;;;;;5076517;28;20481;-83
2021/12/28 06:16:14;;;;;;;16.17;6.47;;;;;;;;;;5083713;28;20216;-82
2021/12/28 06:18:42;;;;;;;14.97;6.03;;;;;;;;;;5077600;28;20475;-82
2021/12/28 06:21:10;;;;;;;18.33;6.93;;;;;;;;;;5072162;28;20460;-82
2021/12/28 06:23:37;;;;;;;13.73;6.70;;;;;;;;;;5068785;28;20444;-81
2021/12/28 06:26:06;;;;;;;15.70;5.90;;;;;;;;;;5080047;28;20565;-82
2021/12/28 06:28:33;;;;;;;12.33;6.20;;;;;;;;;;5090597;28;20447;-82
2021/12/28 06:31:00;;;;;;;18.93;6.43;;;;;;;;;;5083256;28;20490;-82
2021/12/28 06:33:27;;;;;;;14.43;5.67;;;;;;;;;;5077522;28;20459;-81
2021/12/28 06:35:55;;;;;;;14.50;6.00;;;;;;;;;;5080490;28;20443;-80
2021/12/28 06:38:23;;;;;;;13.40;5.20;;;;;;;;;;5069398;28;20448;-83
2021/12/28 06:40:50;;;;;;;19.10;6.10;;;;;;;;;;5069457;28;20456;-81
2021/12/28 06:43:18;;;;;;;12.43;6.07;;;;;;;;;;5078464;28;20807;-83
2021/12/28 06:45:45;;;;;;;15.73;5.40;;;;;;;;;;5072706;28;20467;-85
2021/12/28 06:48:12;;;;;;;15.30;5.43;;;;;;;;;;5079060;28;20811;-82
2021/12/28 06:50:39;;;;;;;12.23;4.80;;;;;;;;;;5071650;28;20472;-83
2021/12/28 06:53:06;;;;;;;11.87;5.30;;;;;;;;;;5071584;28;20452;-85
2021/12/28 06:55:35;;;;;;;10.83;5.50;;;;;;;;;;5076576;28;20466;-85
2021/12/28 06:58:04;;;;;;;13.90;5.40;;;;;;;;;;5077147;28;20451;-81
2021/12/28 07:00:32;;;;;;;11.07;5.37;;;;;;;;;;5089947;28;20469;-86
2021/12/28 07:02:59;;;;;;;12.63;4.20;;;;;;;;;;5088585;28;20453;-81
2021/12/28 07:05:26;;;;;;;12.13;5.53;;;;;;;;;;5087313;28;20455;-82
2021/12/28 07:07:54;;;;;;;14.70;4.77;;;;;;;;;;5089173;28;20447;-81
2021/12/28 07:10:21;;;;;;;7.53;4.50;;;;;;;;;;5075780;28;20480;-82
2021/12/28 07:12:50;;;;;;;11.27;4.80;;;;;;;;;;5088557;28;20439;-82
2021/12/28 07:15:17;;;;;;;18.87;5.50;;;;;;;;;;5089213;28;20442;-83
2021/12/28 07:17:45;;;;;;;11.97;4.30;;;;;;;;;;5075426;28;20487;-82
2021/12/28 07:20:13;;;;;;;14.10;5.07;;;;;;;;;;5072277;28;21369;-83
2021/12/28 07:22:40;;;;;;;10.43;3.70;;;;;;;;;;5083994;28;20459;-84
2021/12/28 07:25:08;;;;;;;16.03;4.90;;;;;;;;;;5087265;28;20455;-84
2021/12/28 07:27:36;;;;;;;11.37;4.50;;;;;;;;;;5083595;28;20456;-82
2021/12/28 07:30:05;;;;;;;13.80;4.90;;;;;;;;;;5067776;28;20468;-81
2021/12/28 07:32:33;;;;;;;10.03;4.47;;;;;;;;;;5077998;28;20455;-84
2021/12/28 07:35:00;;;;;;;13.60;4.53;;;;;;;;;;5075288;28;20448;-83
2021/12/28 07:37:27;;;;;;;9.47;4.70;;;;;;;;;;5082038;28;20786;-81
2021/12/28 07:39:54;;;;;;;12.63;4.27;;;;;;;;;;5086143;28;20479;-85
2021/12/28 07:42:22;;;;;;;15.30;3.97;;;;;;;;;;5087284;28;20447;-84
2021/12/28 07:44:49;;;;;;;11.30;4.30;;;;;;;;;;5073393;28;20811;-84
2021/12/28 07:47:18;;;;;;;9.03;4.23;;;;;;;;;;5078134;28;20452;-83
2021/12/28 07:49:45;;;;;;;9.60;4.10;;;;;;;;;;5061672;28;20468;-82
2021/12/28 07:52:12;;;;;;;7.53;3.60;;;;;;;;;;5075502;28;20799;-83
2021/12/28 07:54:39;;;;;;;10.20;3.93;;;;;;;;;;5091074;28;20212;-83
2021/12/28 07:57:07;;;;;;;10.80;4.50;;;;;;;;;;5089943;28;20833;-83
2021/12/28 07:59:34;;;;;;;11.57;4.80;;;;;;;;;;5087828;28;20914;-85
2021/12/28 08:02:01;;;;;;;12.87;3.90;;;;;;;;;;5076883;28;20467;-84
2021/12/28 08:04:29;;;;;;;8.17;3.53;;;;;;;;;;5080161;28;20466;-85
2021/12/28 08:06:57;;;;;;;6.77;3.53;;;;;;;;;;5076399;28;20474;-81
2021/12/28 08:09:24;;;;;;;5.93;4.13;;;;;;;;;;5079227;28;20483;-82
2021/12/28 08:11:51;;;;;;;11.40;4.27;;;;;;;;;;5090331;28;20457;-81
2021/12/28 08:14:18;;;;;;;14.52;5.13;;;;;;;;;;5072663;28;20961;-83
2021/12/28 08:16:46;;;;;;;6.72;3.42;;;;;;;;;;5072709;28;20205;-84
2021/12/28 08:19:13;;;;;;;5.07;3.63;;;;;;;;;;5066222;28;20189;-81
2021/12/28 08:21:42;;;;;;;7.18;4.00;;;;;;;;;;5077851;28;20563;-81
2021/12/28 08:24:09;;;;;;;8.90;4.13;;;;;;;;;;5074065;28;20205;-82
2021/12/28 08:26:36;;;;;;;8.03;3.40;;;;;;;;;;5091132;28;20461;-79
2021/12/28 08:29:03;;;;;;;11.93;4.50;;;;;;;;;;5089710;28;20459;-81
2021/12/28 08:31:31;;;;;;;7.03;3.93;;;;;;;;;;5092144;28;20486;-82
2021/12/28 08:33:59;;;;;;;11.40;4.37;;;;;;;;;;5082706;28;20463;-80
2021/12/28 08:36:26;;;;;;;8.20;4.00;;;;;;;;;;5083271;28;20444;-79
2021/12/28 08:38:55;;;;;;;10.10;4.80;;;;;;;;;;5078930;28;21019;-83
2021/12/28 08:41:22;;;;;;;8.70;4.60;;;;;;;;;;5072555;28;20916;-85
2021/12/28 08:43:50;;;;;;;7.40;4.30;;;;;;;;;;5055939;28;20444;-81
2021/12/28 08:46:17;;;;;;;7.60;3.63;;;;;;;;;;5079880;28;20465;-82
2021/12/28 08:48:45;;;;;;;13.67;4.67;;;;;;;;;;5089476;28;20436;-87
2021/12/28 08:51:12;;;;;;;6.63;4.40;;;;;;;;;;5081880;28;20513;-82
2021/12/28 08:53:39;;;;;;;7.63;3.83;;;;;;;;;;5093688;28;20446;-81
2021/12/28 08:56:08;;;;;;;8.90;4.30;;;;;;;;;;5091027;28;20464;-86
2021/12/28 08:58:35;;;;;;;9.00;3.67;;;;;;;;;;5083172;28;20819;-87
2021/12/28 09:01:03;;;;;;;6.73;4.50;;;;;;;;;;5079921;28;20459;-81
2021/12/28 09:03:31;;;;;;;8.57;3.67;;;;;;;;;;5074682;28;20448;-83
2021/12/28 09:05:58;;;;;;;9.00;4.33;;;;;;;;;;5071808;28;20459;-80
2021/12/28 09:08:25;;;;;;;10.63;4.10;;;;;;;;;;5071297;28;20455;-78
2021/12/28 09:10:52;;;;;;;11.73;4.40;;;;;;;;;;5072758;28;20491;-83
2021/12/28 09:13:21;;;;;;;8.20;4.50;;;;;;;;;;5087795;28;20471;-82
2021/12/28 09:15:48;;;;;;;7.40;4.40;;;;;;;;;;5086195;28;20959;-84
2021/12/28 09:18:16;;;;;;;4.80;3.00;;;;;;;;;;5080689;28;20502;-79
2021/12/28 09:20:44;;;;;;;7.03;3.97;;;;;;;;;;5082400;28;20571;-82
2021/12/28 09:23:12;;;;;;;6.37;3.30;;;;;;;;;;5060437;28;20795;-80
2021/12/28 09:25:40;;;;;;;10.93;3.90;;;;;;;;;;5053810;28;20533;-84
2021/12/28 09:28:08;;;;;;;6.60;4.00;;;;;;;;;;5084621;28;20485;-81
2021/12/28 09:30:37;;;;;;;7.00;4.40;;;;;;;;;;5080110;28;20475;-81
2021/12/28 09:33:04;;;;;;;8.47;4.40;;;;;;;;;;5089279;28;20459;-83
2021/12/28 09:35:31;;;;;;;6.20;3.33;;;;;;;;;;5088148;28;20467;-79
2021/12/28 09:37:59;;;;;;;8.60;4.07;;;;;;;;;;5077909;28;20447;-82
2021/12/28 09:40:26;;;;;;;5.90;4.30;;;;;;;;;;5077884;28;20455;-81
2021/12/28 09:42:53;;;;;;;5.40;3.53;;;;;;;;;;5055230;28;20456;-84
2021/12/28 09:45:20;;;;;;;8.40;3.80;;;;;;;;;;5072963;28;20798;-83
2021/12/28 09:47:49;;;;;;;10.27;3.83;;;;;;;;;;5082012;28;20459;-84
2021/12/28 09:50:17;;;;;;;7.90;4.10;;;;;;;;;;5087805;28;20982;-80
2021/12/28 09:52:45;;;;;;;4.57;3.57;;;;;;;;;;5066248;28;20445;-84
2021/12/28 09:55:13;;;;;;;5.53;4.10;;;;;;;;;;5059710;28;20796;-80
2021/12/28 09:57:41;;;;;;;4.40;3.90;;;;;;;;;;5078466;28;20455;-82
2021/12/28 10:00:10;;;;;;;5.70;4.00;;;;;;;;;;5079761;28;20513;-84
2021/12/28 10:02:37;;;;;;;9.57;4.67;;;;;;;;;;5070566;28;20534;-81
2021/12/28 10:05:08;;;;;;;6.13;3.37;;;;;;;;;;5081287;28;20452;-85
2021/12/28 10:07:36;;;;;;;7.53;3.80;;;;;;;;;;5084271;28;20538;-81
2021/12/28 10:10:06;;;;;;;4.30;3.50;;;;;;;;;;5081819;28;20476;-79
2021/12/28 10:12:35;;;;;;;4.50;3.50;;;;;;;;;;5076845;28;20482;-83
2021/12/28 10:15:03;;;;;;;5.83;3.40;;;;;;;;;;5052626;28;20456;-79
2021/12/28 10:17:31;;;;;;;4.10;2.57;;;;;;;;;;5075749;28;20482;-81
2021/12/28 10:19:59;;;;;;;4.40;2.83;;;;;;;;;;5081134;28;20505;-77
2021/12/28 10:22:30;;;;;;;4.83;2.57;;;;;;;;;;5079747;28;20460;-76
2021/12/28 10:24:59;;;;;;;4.47;2.60;;;;;;;;;;5089604;28;20469;-80
2021/12/28 10:27:27;;;;;;;3.73;2.80;;;;;;;;;;5076614;28;20456;-77
2021/12/28 10:29:55;;;;;;;4.73;2.60;;;;;;;;;;5073763;28;20519;-81
2021/12/28 10:32:24;;;;;;;3.40;2.60;;;;;;;;;;5088859;28;20466;-78
2021/12/28 10:34:53;;;;;;;2.40;2.20;;;;;;;;;;5079287;28;20460;-80
2021/12/28 10:37:22;;;;;;;2.83;2.20;;;;;;;;;;5090647;28;20442;-81
2021/12/28 10:39:54;;;;;;;3.30;2.43;;;;;;;;;;5089817;28;20463;-80
2021/12/28 10:42:36;;;;;;;6.10;2.87;;;;;;;;;;5078131;28;20544;-79
2021/12/28 10:45:05;;;;;;;4.03;3.07;;;;;;;;;;5073839;28;20448;-81
2021/12/28 10:47:32;;;;;;;3.37;2.40;;;;;;;;;;5057341;28;20450;-80
2021/12/28 10:50:07;;;;;;;3.60;2.07;;;;;;;;;;5088749;28;20479;-78
2021/12/28 10:52:39;;;;;;;2.10;1.80;;;;;;;;;;5090262;28;20454;-78
2021/12/28 10:55:22;;;;;;;2.30;2.10;;;;;;;;;;5090907;28;20485;-79
2021/12/28 10:57:50;;;;;;;2.93;2.20;;;;;;;;;;5066932;28;20474;-82
2021/12/28 11:00:25;;;;;;;4.23;1.80;;;;;;;;;;5073724;28;20456;-76
2021/12/28 11:02:52;;;;;;;2.97;1.90;;;;;;;;;;5081863;28;21043;-77
2021/12/28 11:05:34;;;;;;;2.60;1.83;;;;;;;;;;5086071;28;20855;-78
2021/12/28 11:08:02;;;;;;;3.40;2.17;;;;;;;;;;5058071;28;20440;-79
2021/12/28 11:10:29;;;;;;;4.20;3.20;;;;;;;;;;5069055;28;20993;-78
2021/12/28 11:12:58;;;;;;;2.77;2.00;;;;;;;;;;5054503;28;20468;-82
2021/12/28 11:15:26;;;;;;;3.50;1.80;;;;;;;;;;5076326;28;20917;-82
2021/12/28 11:17:53;;;;;;;2.20;1.70;;;;;;;;;;5056871;28;20495;-81
2021/12/28 11:20:30;;;;;;;2.67;1.60;;;;;;;;;;5072224;28;20487;-79
2021/12/28 11:23:12;;;;;;;1.47;1.30;;;;;;;;;;5068911;28;20475;-81
2021/12/28 11:25:39;;;;;;;2.03;1.57;;;;;;;;;;5058496;28;20427;-78
2021/12/28 11:28:21;;;;;;;1.83;1.40;;;;;;;;;;5087145;28;20459;-77
2021/12/28 11:31:01;;;;;;;1.70;1.40;;;;;;;;;;5073573;28;20483;-77
2021/12/28 11:33:28;;;;;;;2.67;1.30;;;;;;;;;;5089143;28;20465;-79
2021/12/28 11:35:55;;;;;;;2.00;1.70;;;;;;;;;;5064244;28;20475;-79
2021/12/28 11:38:23;;;;;;;4.77;1.33;;;;;;;;;;5075636;28;20448;-81
2021/12/28 11:40:50;;;;;;;1.60;1.40;;;;;;;;;;5077671;28;21026;-82
2021/12/28 11:43:17;;;;;;;2.00;1.60;;;;;;;;;;5082430;28;20459;-76
2021/12/28 11:45:45;;;;;;;3.03;1.60;;;;;;;;;;5080841;28;20443;-78
2021/12/28 11:48:13;;;;;;;1.63;1.30;;;;;;;;;;5068391;28;20440;-77
2021/12/28 11:50:40;;;;;;;1.27;1.17;;;;;;;;;;5067182;28;20850;-76
2021/12/28 11:53:11;;;;;;;1.53;1.20;;;;;;;;;;5073294;28;20565;-79
2021/12/28 11:55:41;;;;;;;1.47;1.13;;;;;;;;;;5077400;28;20486;-79
2021/12/28 11:58:08;;;;;;;3.10;1.30;;;;;;;;;;5083599;28;21000;-77
2021/12/28 12:00:38;;;;;;;1.97;1.10;;;;;;;;;;5085700;28;20830;-79
2021/12/28 12:03:06;;;;;;;1.70;1.40;;;;;;;;;;5085360;28;20458;-77
2021/12/28 12:05:36;;;;;;;2.63;1.60;;;;;;;;;;5088023;28;20451;-77
2021/12/28 12:08:05;;;;;;;2.60;1.33;;;;;;;;;;5081836;28;20837;-76
2021/12/28 12:10:34;;;;;;;2.97;1.17;;;;;;;;;;5074928;28;20482;-77
2021/12/28 12:13:04;;;;;;;1.87;1.27;;;;;;;;;;5080054;28;20479;-77
2021/12/28 12:15:41;;;;;;;1.10;1.00;;;;;;;;;;5087595;28;20436;-76
2021/12/28 12:18:10;;;;;;;1.60;1.20;;;;;;;;;;5079543;28;20493;-79
2021/12/28 12:20:39;;;;;;;2.03;1.50;;;;;;;;;;5063969;28;20462;-78
2021/12/28 12:23:14;;;;;;;1.83;1.40;;;;;;;;;;5086321;28;20979;-79
2021/12/28 12:25:48;;;;;;;1.60;1.40;;;;;;;;;;5075556;28;20439;-81
2021/12/28 12:28:16;;;;;;;1.30;1.20;;;;;;;;;;5058245;28;20945;-81
2021/12/28 12:30:45;;;;;;;1.60;1.33;;;;;;;;;;5080446;28;20451;-81
2021/12/28 12:33:13;;;;;;;3.03;1.53;;;;;;;;;;5092689;28;20439;-82
2021/12/28 12:35:47;;;;;;;2.90;1.53;;;;;;;;;;5061634;28;20452;-81
2021/12/28 12:38:29;;;;;;;2.87;1.70;;;;;;;;;;5054996;28;20447;-77
2021/12/28 12:40:58;;;;;;;5.50;2.60;;;;;;;;;;5081379;28;20483;-79
2021/12/28 12:43:27;;;;;;;6.33;2.10;;;;;;;;;;5062007;28;20482;-80
2021/12/28 12:46:09;;;;;;;7.40;2.13;;;;;;;;;;5070915;28;20827;-78
2021/12/28 12:48:58;;;;;;;5.50;2.50;;;;;;;;;;5070292;28;20440;-79
2021/12/28 12:51:29;;;;;;;8.13;2.60;;;;;;;;;;5088736;28;20478;-77
2021/12/28 12:53:58;;;;;;;12.60;4.13;;;;;;;;;;5073613;28;20458;-77
2021/12/28 12:56:27;;;;;;;15.57;3.50;;;;;;;;;;5091031;28;20459;-81
2021/12/28 12:58:55;;;;;;;19.03;4.30;;;;;;;;;;5076975;28;20479;-79
2021/12/28 13:01:36;;;;;;;10.73;3.53;;;;;;;;;;5069191;28;20989;-79
2021/12/28 13:04:05;;;;;;;15.87;4.70;;;;;;;;;;5076245;28;20471;-78
2021/12/28 13:06:47;;;;;;;13.73;3.50;;;;;;;;;;5078254;28;20443;-76
2021/12/28 13:09:16;;;;;;;14.03;3.30;;;;;;;;;;5064164;28;20443;-77
2021/12/28 13:11:45;;;;;;;11.20;3.33;;;;;;;;;;5091473;28;20486;-77
2021/12/28 13:14:13;;;;;;;16.73;4.90;;;;;;;;;;5090695;28;20486;-77
2021/12/28 13:16:40;;;;;;;14.67;3.40;;;;;;;;;;5090574;28;20440;-76
2021/12/28 13:19:08;;;;;;;17.00;4.07;;;;;;;;;;5065095;28;20944;-79
2021/12/28 13:21:36;;;;;;;15.67;3.00;;;;;;;;;;5078081;28;20464;-77
2021/12/28 13:24:06;;;;;;;20.03;3.60;;;;;;;;;;5072434;28;20449;-77
2021/12/28 13:26:43;;;;;;;9.40;3.10;;;;;;;;;;5084338;28;20456;-79
2021/12/28 13:29:11;;;;;;;19.37;4.10;;;;;;;;;;5092927;28;20459;-78
2021/12/28 13:31:38;;;;;;;16.27;3.17;;;;;;;;;;5091074;28;20483;-77
2021/12/28 13:34:06;;;;;;;10.43;3.10;;;;;;;;;;5089834;28;20463;-76
2021/12/28 13:36:33;;;;;;;26.00;5.03;;;;;;;;;;5088931;28;20458;-77
2021/12/28 13:39:06;;;;;;;12.93;3.80;;;;;;;;;;5092672;28;20443;-77
2021/12/28 13:41:33;;;;;;;14.43;3.90;;;;;;;;;;5085611;28;20464;-78
2021/12/28 13:44:04;;;;;;;16.83;3.83;;;;;;;;;;5077059;28;20443;-76
2021/12/28 13:46:32;;;;;;;15.63;3.73;;;;;;;;;;5070122;28;20447;-76
2021/12/28 13:49:00;;;;;;;16.97;3.63;;;;;;;;;;5088529;28;20473;-76
2021/12/28 13:51:29;;;;;;;16.50;4.40;;;;;;;;;;5067971;28;20471;-75
2021/12/28 13:53:57;;;;;;;10.87;3.73;;;;;;;;;;5088127;28;20940;-77
2021/12/28 13:56:30;;;;;;;14.67;3.50;;;;;;;;;;5057940;28;20504;-79
2021/12/28 13:58:58;;;;;;;16.83;3.80;;;;;;;;;;5078480;28;20538;-76
2021/12/28 14:01:27;;;;;;;9.67;3.80;;;;;;;;;;5061794;28;20483;-76
2021/12/28 14:03:56;;;;;;;10.20;3.17;;;;;;;;;;5090803;28;20447;-76
2021/12/28 14:06:24;;;;;;;14.93;3.80;;;;;;;;;;5065910;28;20459;-78
2021/12/28 14:08:51;;;;;;;15.23;4.53;;;;;;;;;;5086979;28;20459;-76
2021/12/28 14:11:30;;;;;;;11.33;2.80;;;;;;;;;;5088384;28;20471;-76
2021/12/28 14:13:57;;;;;;;8.97;3.10;;;;;;;;;;5072615;28;20462;-77
2021/12/28 14:16:25;;;;;;;3.30;1.90;;;;;;;;;;5078584;28;20447;-76
2021/12/28 14:18:54;;;;;;;4.90;2.27;;;;;;;;;;5065742;28;20470;-75
2021/12/28 14:21:25;;;;;;;3.17;1.50;;;;;;;;;;5071044;28;20487;-75
2021/12/28 14:23:55;;;;;;;4.87;1.80;;;;;;;;;;5073209;28;20447;-81
2021/12/28 14:26:24;;;;;;;4.90;2.10;;;;;;;;;;5071621;28;20554;-77
2021/12/28 14:28:55;;;;;;;6.43;2.63;;;;;;;;;;5067834;28;20464;-75
2021/12/28 14:31:24;;;;;;;5.87;2.23;;;;;;;;;;5072463;28;20456;-76
2021/12/28 14:33:52;;;;;;;6.63;2.17;;;;;;;;;;5081391;28;20466;-78
2021/12/28 14:36:28;;;;;;;6.87;2.50;;;;;;;;;;5070473;28;20810;-76
2021/12/28 14:39:06;;;;;;;7.73;3.27;;;;;;;;;;5059370;28;20458;-78
2021/12/28 14:41:33;;;;;;;6.00;3.07;;;;;;;;;;5074103;28;20460;-76
2021/12/28 14:44:08;;;;;;;8.10;3.30;;;;;;;;;;5084176;28;20443;-77